sensor_id;sensor_type;location;lat;lon;timestamp;temperature;humidity
64634;DHT22;51043;52.406;9.690;2023-04-06T00:00:58;-1.20;99.90
64634;DHT22;51043;52.406;9.690;2023-04-06T00:03:26;-1.20;99.90
64634;DHT22;51043;52.406;9.690;2023-04-06T00:05:55;-1.20;99.90
64634;DHT22;51043;52.406;9.690;2023-04-06T00:08:25;-1.20;99.90
64634;DHT22;51043;52.406;9.690;2023-04-06T00:10:54;-1.20;99.90
64634;DHT22;51043;52.406;9.690;2023-04-06T00:13:22;-1.20;99.90
64634;DHT22;51043;52.406;9.690;2023-04-06T00:15:50;-1.40;99.90
64634;DHT22;51043;52.406;9.690;2023-04-06T00:18:18;-1.20;99.90
64634;DHT22;51043;52.406;9.690;2023-04-06T00:20:46;-1.30;99.90
64634;DHT22;51043;52.406;9.690;2023-04-06T00:23:16;-1.30;99.90
64634;DHT22;51043;52.406;9.690;2023-04-06T00:25:46;-1.30;99.90
64634;DHT22;51043;52.406;9.690;2023-04-06T00:28:14;-1.30;99.90
64634;DHT22;51043;52.406;9.690;2023-04-06T00:30:42;-1.40;99.90
64634;DHT22;51043;52.406;9.690;2023-04-06T00:33:10;-1.30;99.90
64634;DHT22;51043;52.406;9.690;2023-04-06T00:35:40;-1.30;99.90
64634;DHT22;51043;52.406;9.690;2023-04-06T00:38:08;-1.40;99.90
64634;DHT22;51043;52.406;9.690;2023-04-06T00:40:36;-1.30;99.90
64634;DHT22;51043;52.406;9.690;2023-04-06T00:43:07;-1.20;99.90
64634;DHT22;51043;52.406;9.690;2023-04-06T00:45:36;-1.10;99.90
64634;DHT22;51043;52.406;9.690;2023-04-06T00:48:05;-1.00;99.90
64634;DHT22;51043;52.406;9.690;2023-04-06T00:50:34;-1.00;99.90
64634;DHT22;51043;52.406;9.690;2023-04-06T00:53:02;-0.90;99.90
64634;DHT22;51043;52.406;9.690;2023-04-06T00:55:31;-0.80;99.90
64634;DHT22;51043;52.406;9.690;2023-04-06T00:58:06;-0.60;99.90
64634;DHT22;51043;52.406;9.690;2023-04-06T01:00:44;-0.50;99.90
64634;DHT22;51043;52.406;9.690;2023-04-06T01:03:16;-0.40;99.90
64634;DHT22;51043;52.406;9.690;2023-04-06T01:05:46;-0.40;99.90
64634;DHT22;51043;52.406;9.690;2023-04-06T01:08:21;-0.40;99.90
64634;DHT22;51043;52.406;9.690;2023-04-06T01:10:53;-0.30;99.90
64634;DHT22;51043;52.406;9.690;2023-04-06T01:13:28;-0.20;99.90
64634;DHT22;51043;52.406;9.690;2023-04-06T01:16:05;-0.10;99.90
64634;DHT22;51043;52.406;9.690;2023-04-06T01:18:57;-0.40;99.90
64634;DHT22;51043;52.406;9.690;2023-04-06T01:21:29;0.10;99.90
64634;DHT22;51043;52.406;9.690;2023-04-06T01:24:16;0.10;99.90
64634;DHT22;51043;52.406;9.690;2023-04-06T01:27:11;0.20;99.90
64634;DHT22;51043;52.406;9.690;2023-04-06T01:30:05;0.20;99.90
64634;DHT22;51043;52.406;9.690;2023-04-06T01:32:56;0.40;99.90
64634;DHT22;51043;52.406;9.690;2023-04-06T01:35:42;0.40;99.90
64634;DHT22;51043;52.406;9.690;2023-04-06T01:38:14;0.50;99.90
64634;DHT22;51043;52.406;9.690;2023-04-06T01:40:45;0.50;99.90
64634;DHT22;51043;52.406;9.690;2023-04-06T01:43:13;0.40;99.90
64634;DHT22;51043;52.406;9.690;2023-04-06T01:46:04;0.50;99.90
64634;DHT22;51043;52.406;9.690;2023-04-06T01:48:38;0.50;99.90
64634;DHT22;51043;52.406;9.690;2023-04-06T01:51:39;0.50;99.90
64634;DHT22;51043;52.406;9.690;2023-04-06T01:54:11;0.40;99.90
64634;DHT22;51043;52.406;9.690;2023-04-06T01:56:55;0.50;99.90
64634;DHT22;51043;52.406;9.690;2023-04-06T01:59:42;0.50;99.90
64634;DHT22;51043;52.406;9.690;2023-04-06T02:02:18;0.50;99.90
64634;DHT22;51043;52.406;9.690;2023-04-06T02:04:55;0.40;99.90
64634;DHT22;51043;52.406;9.690;2023-04-06T02:07:24;0.40;99.90
64634;DHT22;51043;52.406;9.690;2023-04-06T02:09:54;0.30;99.90
64634;DHT22;51043;52.406;9.690;2023-04-06T02:12:32;0.30;99.90
64634;DHT22;51043;52.406;9.690;2023-04-06T02:15:01;0.30;99.90
64634;DHT22;51043;52.406;9.690;2023-04-06T02:17:30;0.30;99.90
64634;DHT22;51043;52.406;9.690;2023-04-06T02:19:58;0.20;99.90
64634;DHT22;51043;52.406;9.690;2023-04-06T02:22:30;0.30;99.90
64634;DHT22;51043;52.406;9.690;2023-04-06T02:24:58;0.20;99.90
64634;DHT22;51043;52.406;9.690;2023-04-06T02:27:27;0.20;99.90
64634;DHT22;51043;52.406;9.690;2023-04-06T02:29:57;0.30;99.90
64634;DHT22;51043;52.406;9.690;2023-04-06T02:32:26;0.20;99.90
64634;DHT22;51043;52.406;9.690;2023-04-06T02:34:54;0.30;99.90
64634;DHT22;51043;52.406;9.690;2023-04-06T02:37:23;0.30;99.90
64634;DHT22;51043;52.406;9.690;2023-04-06T02:39:51;0.30;99.90
64634;DHT22;51043;52.406;9.690;2023-04-06T02:42:21;0.40;99.90
64634;DHT22;51043;52.406;9.690;2023-04-06T02:44:51;0.30;99.90
64634;DHT22;51043;52.406;9.690;2023-04-06T02:47:23;0.40;99.90
64634;DHT22;51043;52.406;9.690;2023-04-06T02:49:51;0.40;99.90
64634;DHT22;51043;52.406;9.690;2023-04-06T02:52:19;0.40;99.90
64634;DHT22;51043;52.406;9.690;2023-04-06T02:54:48;0.50;99.90
64634;DHT22;51043;52.406;9.690;2023-04-06T02:57:24;0.60;99.90
64634;DHT22;51043;52.406;9.690;2023-04-06T02:59:52;0.70;99.90
64634;DHT22;51043;52.406;9.690;2023-04-06T03:02:28;0.70;99.90
64634;DHT22;51043;52.406;9.690;2023-04-06T03:05:05;0.70;99.90
64634;DHT22;51043;52.406;9.690;2023-04-06T03:07:37;0.80;99.90
64634;DHT22;51043;52.406;9.690;2023-04-06T03:10:09;0.80;99.90
64634;DHT22;51043;52.406;9.690;2023-04-06T03:12:37;0.80;99.90
64634;DHT22;51043;52.406;9.690;2023-04-06T03:15:17;0.70;99.90
64634;DHT22;51043;52.406;9.690;2023-04-06T03:17:51;0.80;99.90
64634;DHT22;51043;52.406;9.690;2023-04-06T03:20:31;0.70;99.90
64634;DHT22;51043;52.406;9.690;2023-04-06T03:22:59;0.70;99.90
64634;DHT22;51043;52.406;9.690;2023-04-06T03:25:35;0.60;99.90
64634;DHT22;51043;52.406;9.690;2023-04-06T03:28:05;0.60;99.90
64634;DHT22;51043;52.406;9.690;2023-04-06T03:30:41;0.60;99.90
64634;DHT22;51043;52.406;9.690;2023-04-06T03:33:12;0.60;99.90
64634;DHT22;51043;52.406;9.690;2023-04-06T03:35:50;0.50;99.90
64634;DHT22;51043;52.406;9.690;2023-04-06T03:38:19;0.40;99.90
64634;DHT22;51043;52.406;9.690;2023-04-06T03:40:47;0.40;99.90
64634;DHT22;51043;52.406;9.690;2023-04-06T03:43:19;0.30;99.90
64634;DHT22;51043;52.406;9.690;2023-04-06T03:45:47;0.20;99.90
64634;DHT22;51043;52.406;9.690;2023-04-06T03:48:17;0.20;99.90
64634;DHT22;51043;52.406;9.690;2023-04-06T03:50:45;0.10;99.90
64634;DHT22;51043;52.406;9.690;2023-04-06T03:53:13;0.10;99.90
64634;DHT22;51043;52.406;9.690;2023-04-06T03:55:41;0.10;99.90
64634;DHT22;51043;52.406;9.690;2023-04-06T03:58:09;0.00;99.90
64634;DHT22;51043;52.406;9.690;2023-04-06T04:00:38;0.00;99.90
64634;DHT22;51043;52.406;9.690;2023-04-06T04:03:06;-0.10;99.90
64634;DHT22;51043;52.406;9.690;2023-04-06T04:05:36;-0.10;99.90
64634;DHT22;51043;52.406;9.690;2023-04-06T04:08:06;-0.10;99.90
64634;DHT22;51043;52.406;9.690;2023-04-06T04:10:34;-0.10;99.90
64634;DHT22;51043;52.406;9.690;2023-04-06T04:13:02;-0.10;99.90
64634;DHT22;51043;52.406;9.690;2023-04-06T04:15:34;-0.10;99.90
64634;DHT22;51043;52.406;9.690;2023-04-06T04:18:02;-0.10;99.90
64634;DHT22;51043;52.406;9.690;2023-04-06T04:20:31;0.00;99.90
64634;DHT22;51043;52.406;9.690;2023-04-06T04:23:02;0.00;99.90
64634;DHT22;51043;52.406;9.690;2023-04-06T04:25:34;-0.10;99.90
64634;DHT22;51043;52.406;9.690;2023-04-06T04:28:03;-0.10;99.90
64634;DHT22;51043;52.406;9.690;2023-04-06T04:30:35;-0.20;99.90
64634;DHT22;51043;52.406;9.690;2023-04-06T04:33:07;-0.30;99.90
64634;DHT22;51043;52.406;9.690;2023-04-06T04:35:38;-0.40;99.90
64634;DHT22;51043;52.406;9.690;2023-04-06T04:38:09;-0.40;99.90
64634;DHT22;51043;52.406;9.690;2023-04-06T04:40:41;-0.50;99.90
64634;DHT22;51043;52.406;9.690;2023-04-06T04:43:11;-0.50;99.90
64634;DHT22;51043;52.406;9.690;2023-04-06T04:45:41;-0.60;99.90
64634;DHT22;51043;52.406;9.690;2023-04-06T04:48:24;-0.60;99.90
64634;DHT22;51043;52.406;9.690;2023-04-06T04:50:57;-0.70;99.90
64634;DHT22;51043;52.406;9.690;2023-04-06T04:53:34;-0.80;99.90
64634;DHT22;51043;52.406;9.690;2023-04-06T04:56:13;-0.80;99.90
64634;DHT22;51043;52.406;9.690;2023-04-06T04:58:43;-0.90;99.90
64634;DHT22;51043;52.406;9.690;2023-04-06T05:01:13;-1.00;99.90
64634;DHT22;51043;52.406;9.690;2023-04-06T05:03:45;-1.00;99.90
64634;DHT22;51043;52.406;9.690;2023-04-06T05:06:15;-1.00;99.90
64634;DHT22;51043;52.406;9.690;2023-04-06T05:08:44;-1.10;99.90
64634;DHT22;51043;52.406;9.690;2023-04-06T05:11:12;-1.10;99.90
64634;DHT22;51043;52.406;9.690;2023-04-06T05:13:45;-1.10;99.90
64634;DHT22;51043;52.406;9.690;2023-04-06T05:16:17;-1.10;99.90
64634;DHT22;51043;52.406;9.690;2023-04-06T05:18:47;-1.00;99.90
64634;DHT22;51043;52.406;9.690;2023-04-06T05:21:15;-1.00;99.90
64634;DHT22;51043;52.406;9.690;2023-04-06T05:24:06;-1.00;99.90
64634;DHT22;51043;52.406;9.690;2023-04-06T05:26:36;-0.90;99.90
64634;DHT22;51043;52.406;9.690;2023-04-06T05:29:10;-0.90;99.90
64634;DHT22;51043;52.406;9.690;2023-04-06T05:31:39;-0.80;99.90
64634;DHT22;51043;52.406;9.690;2023-04-06T05:34:10;-0.70;99.90
64634;DHT22;51043;52.406;9.690;2023-04-06T05:36:39;-0.50;99.90
64634;DHT22;51043;52.406;9.690;2023-04-06T05:39:18;-0.40;99.90
64634;DHT22;51043;52.406;9.690;2023-04-06T05:41:50;-0.20;99.90
64634;DHT22;51043;52.406;9.690;2023-04-06T05:44:31;0.00;99.90
64634;DHT22;51043;52.406;9.690;2023-04-06T05:47:07;0.30;99.90
64634;DHT22;51043;52.406;9.690;2023-04-06T05:49:37;0.60;99.90
64634;DHT22;51043;52.406;9.690;2023-04-06T05:52:10;0.80;99.90
64634;DHT22;51043;52.406;9.690;2023-04-06T05:54:44;1.00;99.90
64634;DHT22;51043;52.406;9.690;2023-04-06T05:57:13;1.30;99.90
64634;DHT22;51043;52.406;9.690;2023-04-06T05:59:41;1.50;99.90
64634;DHT22;51043;52.406;9.690;2023-04-06T06:02:11;1.70;99.90
64634;DHT22;51043;52.406;9.690;2023-04-06T06:04:42;2.00;99.90
64634;DHT22;51043;52.406;9.690;2023-04-06T06:07:11;2.20;99.90
64634;DHT22;51043;52.406;9.690;2023-04-06T06:09:47;2.40;99.90
64634;DHT22;51043;52.406;9.690;2023-04-06T06:12:26;2.60;99.90
64634;DHT22;51043;52.406;9.690;2023-04-06T06:14:55;2.80;99.90
64634;DHT22;51043;52.406;9.690;2023-04-06T06:17:25;3.10;99.90
64634;DHT22;51043;52.406;9.690;2023-04-06T06:19:54;3.30;99.90
64634;DHT22;51043;52.406;9.690;2023-04-06T06:22:22;3.50;99.90
64634;DHT22;51043;52.406;9.690;2023-04-06T06:24:54;3.70;99.90
64634;DHT22;51043;52.406;9.690;2023-04-06T06:27:23;3.90;99.90
64634;DHT22;51043;52.406;9.690;2023-04-06T06:29:52;4.20;99.90
64634;DHT22;51043;52.406;9.690;2023-04-06T06:32:21;4.20;99.90
64634;DHT22;51043;52.406;9.690;2023-04-06T06:34:53;4.60;99.90
64634;DHT22;51043;52.406;9.690;2023-04-06T06:37:21;4.80;99.90
64634;DHT22;51043;52.406;9.690;2023-04-06T06:39:54;5.00;99.90
64634;DHT22;51043;52.406;9.690;2023-04-06T06:42:22;5.20;99.90
64634;DHT22;51043;52.406;9.690;2023-04-06T06:45:01;5.50;99.90
64634;DHT22;51043;52.406;9.690;2023-04-06T06:47:29;5.60;99.90
64634;DHT22;51043;52.406;9.690;2023-04-06T06:49:57;5.90;99.90
64634;DHT22;51043;52.406;9.690;2023-04-06T06:52:25;6.00;99.90
64634;DHT22;51043;52.406;9.690;2023-04-06T06:54:58;6.10;99.90
64634;DHT22;51043;52.406;9.690;2023-04-06T06:57:28;6.30;99.90
64634;DHT22;51043;52.406;9.690;2023-04-06T06:59:56;6.40;99.90
64634;DHT22;51043;52.406;9.690;2023-04-06T07:02:27;6.50;99.90
64634;DHT22;51043;52.406;9.690;2023-04-06T07:04:56;6.60;99.90
64634;DHT22;51043;52.406;9.690;2023-04-06T07:07:24;6.70;99.90
64634;DHT22;51043;52.406;9.690;2023-04-06T07:09:54;6.80;99.90
64634;DHT22;51043;52.406;9.690;2023-04-06T07:12:24;7.10;99.60
64634;DHT22;51043;52.406;9.690;2023-04-06T07:14:52;7.40;98.10
64634;DHT22;51043;52.406;9.690;2023-04-06T07:17:20;8.10;96.00
64634;DHT22;51043;52.406;9.690;2023-04-06T07:19:49;9.10;92.20
64634;DHT22;51043;52.406;9.690;2023-04-06T07:22:17;10.00;84.60
64634;DHT22;51043;52.406;9.690;2023-04-06T07:24:45;11.00;73.10
64634;DHT22;51043;52.406;9.690;2023-04-06T07:27:13;11.60;65.60
64634;DHT22;51043;52.406;9.690;2023-04-06T07:29:44;12.10;60.90
64634;DHT22;51043;52.406;9.690;2023-04-06T07:32:13;12.70;57.70
64634;DHT22;51043;52.406;9.690;2023-04-06T07:34:41;13.10;55.00
64634;DHT22;51043;52.406;9.690;2023-04-06T07:37:11;13.20;52.60
64634;DHT22;51043;52.406;9.690;2023-04-06T07:39:39;13.40;51.90
64634;DHT22;51043;52.406;9.690;2023-04-06T07:42:11;13.80;51.50
64634;DHT22;51043;52.406;9.690;2023-04-06T07:44:39;14.30;49.60
64634;DHT22;51043;52.406;9.690;2023-04-06T07:47:09;14.80;47.90
64634;DHT22;51043;52.406;9.690;2023-04-06T07:49:37;14.80;47.30
64634;DHT22;51043;52.406;9.690;2023-04-06T07:52:05;15.20;44.60
64634;DHT22;51043;52.406;9.690;2023-04-06T07:54:36;15.00;44.40
64634;DHT22;51043;52.406;9.690;2023-04-06T07:57:04;14.90;44.80
64634;DHT22;51043;52.406;9.690;2023-04-06T07:59:33;15.00;44.10
64634;DHT22;51043;52.406;9.690;2023-04-06T08:02:00;15.30;46.00
64634;DHT22;51043;52.406;9.690;2023-04-06T08:04:30;15.50;43.60
64634;DHT22;51043;52.406;9.690;2023-04-06T08:06:58;15.60;41.70
64634;DHT22;51043;52.406;9.690;2023-04-06T08:09:26;14.70;42.50
64634;DHT22;51043;52.406;9.690;2023-04-06T08:11:54;14.90;44.20
64634;DHT22;51043;52.406;9.690;2023-04-06T08:14:22;15.20;44.10
64634;DHT22;51043;52.406;9.690;2023-04-06T08:16:50;15.80;45.00
64634;DHT22;51043;52.406;9.690;2023-04-06T08:19:18;16.80;43.50
64634;DHT22;51043;52.406;9.690;2023-04-06T08:21:48;17.40;39.90
64634;DHT22;51043;52.406;9.690;2023-04-06T08:24:18;17.20;39.30
64634;DHT22;51043;52.406;9.690;2023-04-06T08:26:46;17.00;39.00
64634;DHT22;51043;52.406;9.690;2023-04-06T08:29:15;17.30;39.90
64634;DHT22;51043;52.406;9.690;2023-04-06T08:31:43;18.00;38.60
64634;DHT22;51043;52.406;9.690;2023-04-06T08:34:11;18.00;36.80
64634;DHT22;51043;52.406;9.690;2023-04-06T08:36:39;17.80;37.40
64634;DHT22;51043;52.406;9.690;2023-04-06T08:39:09;18.20;38.90
64634;DHT22;51043;52.406;9.690;2023-04-06T08:41:37;18.80;38.30
64634;DHT22;51043;52.406;9.690;2023-04-06T08:44:05;19.60;36.20
64634;DHT22;51043;52.406;9.690;2023-04-06T08:46:34;20.10;35.00
64634;DHT22;51043;52.406;9.690;2023-04-06T08:49:02;19.60;33.50
64634;DHT22;51043;52.406;9.690;2023-04-06T08:51:34;19.90;33.90
64634;DHT22;51043;52.406;9.690;2023-04-06T08:54:02;19.50;33.60
64634;DHT22;51043;52.406;9.690;2023-04-06T08:56:32;19.20;34.20
64634;DHT22;51043;52.406;9.690;2023-04-06T08:59:00;18.40;33.70
64634;DHT22;51043;52.406;9.690;2023-04-06T09:01:29;18.30;35.40
64634;DHT22;51043;52.406;9.690;2023-04-06T09:03:59;18.40;35.30
64634;DHT22;51043;52.406;9.690;2023-04-06T09:06:27;19.00;36.20
64634;DHT22;51043;52.406;9.690;2023-04-06T09:08:57;19.70;35.00
64634;DHT22;51043;52.406;9.690;2023-04-06T09:11:25;20.00;33.80
64634;DHT22;51043;52.406;9.690;2023-04-06T09:13:55;20.80;34.00
64634;DHT22;51043;52.406;9.690;2023-04-06T09:16:24;20.60;33.20
64634;DHT22;51043;52.406;9.690;2023-04-06T09:18:52;21.00;32.80
64634;DHT22;51043;52.406;9.690;2023-04-06T09:21:22;21.10;32.50
64634;DHT22;51043;52.406;9.690;2023-04-06T09:23:58;21.40;33.10
64634;DHT22;51043;52.406;9.690;2023-04-06T09:26:27;22.30;32.50
64634;DHT22;51043;52.406;9.690;2023-04-06T09:28:57;22.20;32.60
64634;DHT22;51043;52.406;9.690;2023-04-06T09:31:28;23.20;30.90
64634;DHT22;51043;52.406;9.690;2023-04-06T09:33:57;23.80;30.80
64634;DHT22;51043;52.406;9.690;2023-04-06T09:36:32;24.00;29.50
64634;DHT22;51043;52.406;9.690;2023-04-06T09:39:02;22.80;29.50
64634;DHT22;51043;52.406;9.690;2023-04-06T09:41:35;22.20;30.70
64634;DHT22;51043;52.406;9.690;2023-04-06T09:44:05;22.20;29.80
64634;DHT22;51043;52.406;9.690;2023-04-06T09:46:37;22.10;29.80
64634;DHT22;51043;52.406;9.690;2023-04-06T09:49:13;21.90;31.30
64634;DHT22;51043;52.406;9.690;2023-04-06T09:51:46;21.60;31.30
64634;DHT22;51043;52.406;9.690;2023-04-06T09:54:20;21.60;30.90
64634;DHT22;51043;52.406;9.690;2023-04-06T09:56:52;21.80;30.50
64634;DHT22;51043;52.406;9.690;2023-04-06T09:59:30;21.60;30.90
64634;DHT22;51043;52.406;9.690;2023-04-06T10:02:00;21.10;33.00
64634;DHT22;51043;52.406;9.690;2023-04-06T10:04:39;21.20;31.40
64634;DHT22;51043;52.406;9.690;2023-04-06T10:07:10;20.80;31.70
64634;DHT22;51043;52.406;9.690;2023-04-06T10:09:39;20.20;31.70
64634;DHT22;51043;52.406;9.690;2023-04-06T10:12:08;19.60;31.40
64634;DHT22;51043;52.406;9.690;2023-04-06T10:14:39;19.30;31.70
64634;DHT22;51043;52.406;9.690;2023-04-06T10:17:08;19.40;33.10
64634;DHT22;51043;52.406;9.690;2023-04-06T10:19:44;20.30;32.80
64634;DHT22;51043;52.406;9.690;2023-04-06T10:22:22;21.40;31.00
64634;DHT22;51043;52.406;9.690;2023-04-06T10:24:52;22.90;30.40
64634;DHT22;51043;52.406;9.690;2023-04-06T10:27:27;22.80;28.00
64634;DHT22;51043;52.406;9.690;2023-04-06T10:30:02;22.70;27.70
64634;DHT22;51043;52.406;9.690;2023-04-06T10:32:35;22.70;29.50
64634;DHT22;51043;52.406;9.690;2023-04-06T10:35:08;22.60;29.20
64634;DHT22;51043;52.406;9.690;2023-04-06T10:37:50;23.40;28.10
64634;DHT22;51043;52.406;9.690;2023-04-06T10:40:23;24.40;27.30
64634;DHT22;51043;52.406;9.690;2023-04-06T10:42:52;24.10;26.80
64634;DHT22;51043;52.406;9.690;2023-04-06T10:45:31;24.30;27.30
64634;DHT22;51043;52.406;9.690;2023-04-06T10:47:59;24.60;28.10
64634;DHT22;51043;52.406;9.690;2023-04-06T10:50:29;25.50;25.40
64634;DHT22;51043;52.406;9.690;2023-04-06T10:53:02;23.90;26.10
64634;DHT22;51043;52.406;9.690;2023-04-06T10:55:31;23.40;26.60
64634;DHT22;51043;52.406;9.690;2023-04-06T10:58:05;23.40;27.90
64634;DHT22;51043;52.406;9.690;2023-04-06T11:00:35;23.50;28.80
64634;DHT22;51043;52.406;9.690;2023-04-06T11:03:13;24.30;25.90
64634;DHT22;51043;52.406;9.690;2023-04-06T11:05:43;24.50;25.80
64634;DHT22;51043;52.406;9.690;2023-04-06T11:08:22;23.90;24.30
64634;DHT22;51043;52.406;9.690;2023-04-06T11:10:51;23.20;26.00
64634;DHT22;51043;52.406;9.690;2023-04-06T11:13:19;23.20;27.20
64634;DHT22;51043;52.406;9.690;2023-04-06T11:15:48;24.00;26.50
64634;DHT22;51043;52.406;9.690;2023-04-06T11:18:17;23.70;25.90
64634;DHT22;51043;52.406;9.690;2023-04-06T11:20:47;23.30;26.00
64634;DHT22;51043;52.406;9.690;2023-04-06T11:23:22;23.20;25.40
64634;DHT22;51043;52.406;9.690;2023-04-06T11:25:52;23.70;27.50
64634;DHT22;51043;52.406;9.690;2023-04-06T11:28:20;24.60;25.50
64634;DHT22;51043;52.406;9.690;2023-04-06T11:30:49;24.50;25.70
64634;DHT22;51043;52.406;9.690;2023-04-06T11:33:21;24.30;26.20
64634;DHT22;51043;52.406;9.690;2023-04-06T11:35:49;24.10;26.80
64634;DHT22;51043;52.406;9.690;2023-04-06T11:38:18;24.00;25.70
64634;DHT22;51043;52.406;9.690;2023-04-06T11:40:52;23.80;26.70
64634;DHT22;51043;52.406;9.690;2023-04-06T11:43:26;23.70;25.60
64634;DHT22;51043;52.406;9.690;2023-04-06T11:46:02;23.80;26.20
64634;DHT22;51043;52.406;9.690;2023-04-06T11:48:43;24.50;26.00
64634;DHT22;51043;52.406;9.690;2023-04-06T11:51:23;24.50;25.50
64634;DHT22;51043;52.406;9.690;2023-04-06T11:53:51;24.70;25.00
64634;DHT22;51043;52.406;9.690;2023-04-06T11:56:24;24.80;24.80
64634;DHT22;51043;52.406;9.690;2023-04-06T11:58:54;24.30;25.60
64634;DHT22;51043;52.406;9.690;2023-04-06T12:01:26;24.10;26.30
64634;DHT22;51043;52.406;9.690;2023-04-06T12:03:57;23.90;25.90
64634;DHT22;51043;52.406;9.690;2023-04-06T12:06:25;23.80;25.90
64634;DHT22;51043;52.406;9.690;2023-04-06T12:08:53;24.20;26.80
64634;DHT22;51043;52.406;9.690;2023-04-06T12:11:21;24.30;26.30
64634;DHT22;51043;52.406;9.690;2023-04-06T12:13:50;24.30;26.40
64634;DHT22;51043;52.406;9.690;2023-04-06T12:16:19;23.10;26.50
64634;DHT22;51043;52.406;9.690;2023-04-06T12:18:49;23.00;26.90
64634;DHT22;51043;52.406;9.690;2023-04-06T12:21:17;22.70;27.70
64634;DHT22;51043;52.406;9.690;2023-04-06T12:23:45;22.80;28.00
64634;DHT22;51043;52.406;9.690;2023-04-06T12:26:13;23.10;27.00
64634;DHT22;51043;52.406;9.690;2023-04-06T12:28:42;23.20;27.10
64634;DHT22;51043;52.406;9.690;2023-04-06T12:31:14;23.20;26.40
64634;DHT22;51043;52.406;9.690;2023-04-06T12:33:43;23.10;26.30
64634;DHT22;51043;52.406;9.690;2023-04-06T12:36:14;22.70;26.80
64634;DHT22;51043;52.406;9.690;2023-04-06T12:38:42;21.50;26.80
64634;DHT22;51043;52.406;9.690;2023-04-06T12:41:12;21.80;27.90
64634;DHT22;51043;52.406;9.690;2023-04-06T12:43:41;22.20;27.30
64634;DHT22;51043;52.406;9.690;2023-04-06T12:46:10;22.20;27.90
64634;DHT22;51043;52.406;9.690;2023-04-06T12:48:38;22.60;26.90
64634;DHT22;51043;52.406;9.690;2023-04-06T12:51:07;22.70;27.40
64634;DHT22;51043;52.406;9.690;2023-04-06T12:53:37;22.90;27.60
64634;DHT22;51043;52.406;9.690;2023-04-06T12:56:11;22.90;27.00
64634;DHT22;51043;52.406;9.690;2023-04-06T12:58:40;21.90;27.20
64634;DHT22;51043;52.406;9.690;2023-04-06T13:01:08;21.50;28.30
64634;DHT22;51043;52.406;9.690;2023-04-06T13:03:38;21.20;28.60
64634;DHT22;51043;52.406;9.690;2023-04-06T13:06:06;20.50;29.00
64634;DHT22;51043;52.406;9.690;2023-04-06T13:08:36;19.70;29.10
64634;DHT22;51043;52.406;9.690;2023-04-06T13:11:05;19.00;30.20
64634;DHT22;51043;52.406;9.690;2023-04-06T13:13:35;18.50;31.50
64634;DHT22;51043;52.406;9.690;2023-04-06T13:16:05;17.90;31.10
64634;DHT22;51043;52.406;9.690;2023-04-06T13:18:34;17.30;32.90
64634;DHT22;51043;52.406;9.690;2023-04-06T13:21:06;16.90;32.80
64634;DHT22;51043;52.406;9.690;2023-04-06T13:23:34;16.40;33.60
64634;DHT22;51043;52.406;9.690;2023-04-06T13:26:05;16.00;33.60
64634;DHT22;51043;52.406;9.690;2023-04-06T13:28:34;15.50;36.10
64634;DHT22;51043;52.406;9.690;2023-04-06T13:31:04;15.40;35.60
64634;DHT22;51043;52.406;9.690;2023-04-06T13:33:32;15.20;34.70
64634;DHT22;51043;52.406;9.690;2023-04-06T13:36:01;15.00;36.00
64634;DHT22;51043;52.406;9.690;2023-04-06T13:38:29;15.00;36.10
64634;DHT22;51043;52.406;9.690;2023-04-06T13:40:57;14.80;35.80
64634;DHT22;51043;52.406;9.690;2023-04-06T13:43:27;14.80;36.60
64634;DHT22;51043;52.406;9.690;2023-04-06T13:45:55;14.90;37.00
64634;DHT22;51043;52.406;9.690;2023-04-06T13:48:24;14.80;36.60
64634;DHT22;51043;52.406;9.690;2023-04-06T13:50:52;14.90;37.60
64634;DHT22;51043;52.406;9.690;2023-04-06T13:53:20;14.90;36.00
64634;DHT22;51043;52.406;9.690;2023-04-06T13:55:55;14.60;36.20
64634;DHT22;51043;52.406;9.690;2023-04-06T13:58:24;14.40;36.20
64634;DHT22;51043;52.406;9.690;2023-04-06T14:00:54;14.30;36.80
64634;DHT22;51043;52.406;9.690;2023-04-06T14:03:22;14.40;37.20
64634;DHT22;51043;52.406;9.690;2023-04-06T14:05:50;14.30;36.50
64634;DHT22;51043;52.406;9.690;2023-04-06T14:08:18;14.20;37.20
64634;DHT22;51043;52.406;9.690;2023-04-06T14:10:47;14.00;36.60
64634;DHT22;51043;52.406;9.690;2023-04-06T14:13:15;13.90;37.40
64634;DHT22;51043;52.406;9.690;2023-04-06T14:15:43;13.90;37.40
64634;DHT22;51043;52.406;9.690;2023-04-06T14:18:12;13.90;37.40
64634;DHT22;51043;52.406;9.690;2023-04-06T14:20:40;14.00;36.70
64634;DHT22;51043;52.406;9.690;2023-04-06T14:23:08;13.90;36.80
64634;DHT22;51043;52.406;9.690;2023-04-06T14:25:37;13.80;37.80
64634;DHT22;51043;52.406;9.690;2023-04-06T14:28:05;13.80;36.80
64634;DHT22;51043;52.406;9.690;2023-04-06T14:30:33;13.80;38.40
64634;DHT22;51043;52.406;9.690;2023-04-06T14:33:01;13.70;37.70
64634;DHT22;51043;52.406;9.690;2023-04-06T14:35:30;13.70;37.40
64634;DHT22;51043;52.406;9.690;2023-04-06T14:37:59;13.70;37.00
64634;DHT22;51043;52.406;9.690;2023-04-06T14:40:28;13.60;37.20
64634;DHT22;51043;52.406;9.690;2023-04-06T14:42:55;13.60;37.30
64634;DHT22;51043;52.406;9.690;2023-04-06T14:45:23;13.60;36.90
64634;DHT22;51043;52.406;9.690;2023-04-06T14:47:53;13.60;37.30
64634;DHT22;51043;52.406;9.690;2023-04-06T14:50:21;13.60;37.70
64634;DHT22;51043;52.406;9.690;2023-04-06T14:52:50;13.70;38.00
64634;DHT22;51043;52.406;9.690;2023-04-06T14:55:21;13.70;37.80
64634;DHT22;51043;52.406;9.690;2023-04-06T14:57:49;13.80;37.30
64634;DHT22;51043;52.406;9.690;2023-04-06T15:00:18;13.80;37.80
64634;DHT22;51043;52.406;9.690;2023-04-06T15:02:46;13.80;37.90
64634;DHT22;51043;52.406;9.690;2023-04-06T15:05:15;13.70;37.60
64634;DHT22;51043;52.406;9.690;2023-04-06T15:07:44;13.70;37.80
64634;DHT22;51043;52.406;9.690;2023-04-06T15:10:13;13.60;37.40
64634;DHT22;51043;52.406;9.690;2023-04-06T15:12:44;13.60;37.50
64634;DHT22;51043;52.406;9.690;2023-04-06T15:15:12;13.60;38.70
64634;DHT22;51043;52.406;9.690;2023-04-06T15:17:40;13.50;37.90
64634;DHT22;51043;52.406;9.690;2023-04-06T15:20:09;13.60;38.40
64634;DHT22;51043;52.406;9.690;2023-04-06T15:22:37;13.50;38.40
64634;DHT22;51043;52.406;9.690;2023-04-06T15:25:06;13.50;38.20
64634;DHT22;51043;52.406;9.690;2023-04-06T15:27:35;13.50;37.90
64634;DHT22;51043;52.406;9.690;2023-04-06T15:30:04;13.60;37.50
64634;DHT22;51043;52.406;9.690;2023-04-06T15:32:32;13.60;37.80
64634;DHT22;51043;52.406;9.690;2023-04-06T15:35:00;13.60;37.80
64634;DHT22;51043;52.406;9.690;2023-04-06T15:37:36;13.60;37.70
64634;DHT22;51043;52.406;9.690;2023-04-06T15:40:05;13.50;37.80
64634;DHT22;51043;52.406;9.690;2023-04-06T15:42:34;13.40;37.90
64634;DHT22;51043;52.406;9.690;2023-04-06T15:45:02;13.40;38.00
64634;DHT22;51043;52.406;9.690;2023-04-06T15:47:31;13.30;38.10
64634;DHT22;51043;52.406;9.690;2023-04-06T15:49:59;13.50;38.80
64634;DHT22;51043;52.406;9.690;2023-04-06T15:52:27;13.40;38.60
64634;DHT22;51043;52.406;9.690;2023-04-06T15:54:55;13.50;38.00
64634;DHT22;51043;52.406;9.690;2023-04-06T16:00:30;13.50;38.60